Time;durP1;ratioP1;P1;durP2;ratioP2;P2;SDS_P1;SDS_P2;PMS_P1;PMS_P2;Temp;Humidity;BMP_temperature;BMP_pressure;BME280_temperature;BME280_humidity;BME280_pressure;Samples;Min_cycle;Max_cycle;Signal;HPM_P1;HPM_P2
2022/07/04 00:00:05;;;;;;;2.73;1.67;;;26.10;51.40;;;-142.21;58.61;112049.66;5113600;28;20235;-78
2022/07/04 00:02:33;;;;;;;3.20;1.20;;;26.00;51.50;;;-142.21;58.46;112049.66;5114268;28;20203;-76
2022/07/04 00:05:01;;;;;;;2.27;1.60;;;26.00;51.50;;;-142.21;58.36;112049.66;5113662;28;20207;-78
2022/07/04 00:07:29;;;;;;;2.20;1.40;;;26.00;51.50;;;-142.21;58.54;112049.66;5116970;28;20235;-78
2022/07/04 00:09:59;;;;;;;1.83;1.30;;;26.00;51.40;;;-142.21;59.23;112049.66;5115966;28;20266;-77
2022/07/04 00:12:26;;;;;;;1.53;1.43;;;25.90;51.40;;;-142.21;59.06;112049.66;5114004;28;20249;-79
2022/07/04 00:14:53;;;;;;;2.80;1.57;;;25.90;51.50;;;-142.21;59.23;112049.66;5113289;28;20282;-77
2022/07/04 00:17:20;;;;;;;1.60;1.40;;;25.80;52.10;;;-142.21;59.92;112049.66;5113589;28;20219;-78
2022/07/04 00:19:47;;;;;;;2.97;1.63;;;25.80;51.60;;;-142.21;59.13;112049.66;5114070;28;20560;-76
2022/07/04 00:22:16;;;;;;;2.57;1.53;;;25.80;51.60;;;-142.21;59.07;112049.66;5113656;28;20196;-77
2022/07/04 00:24:43;;;;;;;2.53;1.33;;;25.70;51.50;;;-142.21;59.48;112049.66;5113852;28;20223;-78
2022/07/04 00:27:10;;;;;;;1.57;1.47;;;25.70;51.60;;;-142.21;58.45;112049.66;5112512;28;20196;-78
2022/07/04 00:29:37;;;;;;;2.10;1.73;;;25.70;51.60;;;-142.21;59.69;112049.66;5113257;28;20206;-80
2022/07/04 00:32:09;;;;;;;1.40;1.30;;;25.60;51.70;;;-142.21;60.14;112049.66;5112920;28;20291;-79
2022/07/04 00:34:37;;;;;;;3.80;1.70;;;25.60;52.10;;;-142.21;60.37;112049.66;5113786;28;20223;-78
2022/07/04 00:37:05;;;;;;;1.63;1.30;;;25.50;51.90;;;-142.21;60.57;112049.66;5112533;28;20216;-78
2022/07/04 00:39:33;;;;;;;1.77;1.47;;;25.50;52.00;;;-142.21;60.14;112049.66;5113768;28;20290;-76
2022/07/04 00:42:01;;;;;;;2.77;1.60;;;25.50;52.50;;;-142.21;59.46;112049.66;5092975;28;20208;-80
2022/07/04 00:44:28;;;;;;;2.23;1.50;;;25.40;51.80;;;-142.21;60.09;112049.66;5100434;28;20287;-79
2022/07/04 00:46:55;;;;;;;1.83;1.50;;;25.40;52.00;;;-142.21;59.69;112049.66;5113035;28;20250;-78
2022/07/04 00:49:22;;;;;;;2.13;1.47;;;25.30;51.80;;;-142.21;58.72;112049.66;5113832;28;20207;-78
2022/07/04 00:51:50;;;;;;;1.83;1.20;;;25.30;51.80;;;-142.21;58.70;112049.66;5113636;28;20802;-77
2022/07/04 00:54:18;;;;;;;2.80;1.40;;;25.30;51.80;;;-142.21;58.83;112049.66;5112980;28;20208;-77
2022/07/04 00:56:48;;;;;;;3.10;1.53;;;25.30;51.80;;;-142.21;58.28;112049.66;5112695;28;20294;-76
2022/07/04 00:59:15;;;;;;;2.47;1.77;;;25.30;51.80;;;-142.21;58.21;112049.66;5112342;28;20211;-77
2022/07/04 01:01:43;;;;;;;1.87;1.33;;;25.30;51.60;;;-142.21;57.87;112049.66;5112887;28;20204;-78
2022/07/04 01:04:10;;;;;;;1.80;1.50;;;25.30;51.50;;;-142.21;58.51;112049.66;5092445;28;20283;-78
2022/07/04 01:06:38;;;;;;;1.57;1.47;;;25.20;51.50;;;-142.21;59.63;112049.66;5092954;28;20247;-77
2022/07/04 01:09:06;;;;;;;3.23;1.60;;;25.20;51.90;;;-142.21;59.44;112049.66;5091416;28;20279;-79
2022/07/04 01:11:33;;;;;;;2.30;1.40;;;25.20;52.00;;;-142.21;60.17;112049.66;5099324;28;20274;-78
2022/07/04 01:14:02;;;;;;;1.60;1.20;;;25.20;52.10;;;-142.21;61.08;112049.66;5112283;28;20286;-79
2022/07/04 01:16:30;;;;;;;1.87;1.57;;;25.10;52.30;;;-142.21;60.81;112049.66;5112477;28;20348;-78
2022/07/04 01:18:57;;;;;;;1.43;1.30;;;25.10;52.20;;;-142.21;61.20;112049.66;5112664;28;20226;-79
2022/07/04 01:21:26;;;;;;;4.60;1.50;;;25.00;52.90;;;-142.21;61.81;112049.66;5113121;28;20238;-79
2022/07/04 01:23:54;;;;;;;1.63;1.53;;;25.00;52.60;;;-142.21;62.21;112049.66;5112527;28;20576;-80
2022/07/04 01:26:22;;;;;;;3.20;1.47;;;24.90;52.70;;;-142.21;63.28;112049.66;5112178;28;20211;-78
2022/07/04 01:28:49;;;;;;;1.70;1.43;;;24.90;53.00;;;-142.21;62.79;112049.66;5112555;28;20624;-79
2022/07/04 01:31:16;;;;;;;2.60;1.40;;;24.80;52.90;;;-142.21;66.37;112049.66;5111707;28;20290;-78
2022/07/04 01:33:44;;;;;;;1.70;1.40;;;24.80;53.70;;;-142.21;67.40;112049.66;5112653;28;20208;-80
2022/07/04 01:36:11;;;;;;;2.10;1.40;;;24.70;54.00;;;-142.21;69.16;112049.66;5112574;28;20231;-79
2022/07/04 01:38:40;;;;;;;1.97;1.77;;;24.50;54.30;;;-142.21;70.98;112049.66;5114872;28;20238;-79
2022/07/04 01:41:07;;;;;;;3.37;1.70;;;24.50;54.90;;;-142.21;71.90;112049.66;5116493;28;20290;-77
2022/07/04 01:43:35;;;;;;;3.70;1.77;;;24.40;55.20;;;-142.21;73.24;112049.66;5116812;28;20207;-77
2022/07/04 01:46:02;;;;;;;1.67;1.33;;;24.40;55.50;;;-142.21;73.80;112049.66;5095945;28;20645;-78
2022/07/04 01:48:29;;;;;;;3.47;1.83;;;24.30;55.90;;;-142.21;75.05;112049.66;5096459;28;20669;-77
2022/07/04 01:50:57;;;;;;;1.67;1.47;;;24.20;56.10;;;-142.21;75.25;112049.66;5096008;28;20217;-77
2022/07/04 01:53:24;;;;;;;1.53;1.43;;;24.10;56.40;;;-142.21;75.75;112049.66;5096147;28;20291;-79
2022/07/04 01:55:53;;;;;;;2.27;2.07;;;24.10;56.60;;;-142.21;76.61;112049.66;5078823;28;20238;-77
2022/07/04 01:58:20;;;;;;;2.73;1.73;;;23.90;56.80;;;-142.21;77.47;112049.66;5096104;28;20629;-79
2022/07/04 02:03:32;;;;;;;4.50;1.50;;;23.90;57.30;;;-142.21;79.22;112049.66;5095950;28;20195;-78
2022/07/04 02:06:02;;;;;;;4.00;1.70;;;23.80;57.40;;;-142.21;79.88;112049.66;5095845;28;20240;-78
2022/07/04 02:09:14;;;;;;;1.73;1.43;;;23.80;57.70;;;-142.21;79.33;112049.66;5114467;28;20210;-79
2022/07/04 02:11:18;;;;;;;4.67;1.80;;;23.70;57.70;;;-142.21;79.61;112049.66;5115504;28;20226;-77
2022/07/04 02:13:44;;;;;;;2.10;1.90;;;23.70;57.80;;;-142.21;79.90;112049.66;5116181;28;20605;-77
2022/07/04 02:16:14;;;;;;;1.77;1.63;;;23.60;57.80;;;-142.21;80.31;112049.66;5115761;28;20290;-79
2022/07/04 02:18:44;;;;;;;2.03;1.60;;;23.60;57.90;;;-142.21;81.12;112049.66;5116056;28;20250;-77
2022/07/04 02:21:31;;;;;;;2.10;1.67;;;23.60;58.10;;;-142.21;81.73;112049.66;5115970;28;20278;-78
2022/07/04 02:23:58;;;;;;;1.83;1.47;;;23.60;58.50;;;-142.21;81.85;112049.66;5115552;28;20226;-79
2022/07/04 02:26:27;;;;;;;1.60;1.50;;;23.60;58.40;;;-142.21;82.13;112049.66;5115612;28;20302;-77
2022/07/04 02:28:54;;;;;;;2.53;1.77;;;23.50;58.60;;;-142.21;82.45;112049.66;5116017;28;20283;-78
2022/07/04 02:31:21;;;;;;;2.00;1.73;;;23.60;58.90;;;-142.21;82.42;112049.66;5115800;28;20294;-79
2022/07/04 02:33:48;;;;;;;2.83;1.80;;;23.50;58.90;;;-142.21;82.84;112049.66;5115913;28;20291;-78
2022/07/04 02:36:16;;;;;;;1.87;1.50;;;23.40;58.90;;;-142.21;82.25;112049.66;5115322;28;20199;-79
2022/07/04 02:38:43;;;;;;;2.83;1.83;;;23.30;58.80;;;-142.21;81.33;112049.66;5115439;28;20627;-78
2022/07/04 02:41:10;;;;;;;1.67;1.57;;;23.20;58.50;;;-142.21;81.80;112049.66;5114803;28;20292;-80
2022/07/04 02:43:38;;;;;;;2.00;1.60;;;23.20;58.60;;;-142.21;81.35;112049.66;5095291;28;20207;-77
2022/07/04 02:46:06;;;;;;;1.90;1.67;;;23.10;58.50;;;-142.21;81.89;112049.66;5094994;28;20200;-77
2022/07/04 02:48:35;;;;;;;2.17;1.83;;;23.20;58.80;;;-142.21;81.99;112049.66;5094605;28;20200;-77
2022/07/04 02:51:03;;;;;;;2.13;1.93;;;23.10;58.80;;;-142.21;82.24;112049.66;5094850;28;20243;-80
2022/07/04 02:53:30;;;;;;;2.00;1.60;;;23.00;58.80;;;-142.21;82.96;112049.66;5094846;28;20205;-79
2022/07/04 02:55:57;;;;;;;3.00;1.57;;;23.00;59.20;;;-142.21;83.76;112049.66;5095020;28;20208;-80
2022/07/04 02:58:25;;;;;;;2.47;1.80;;;23.00;59.30;;;-142.21;83.35;112049.66;5094893;28;20266;-79
2022/07/04 03:00:53;;;;;;;3.00;1.80;;;23.00;59.20;;;-142.21;84.31;112049.66;5095288;28;20295;-79
2022/07/04 03:03:20;;;;;;;1.90;1.70;;;23.00;59.40;;;-142.21;84.61;112049.66;5100778;28;20283;-79
2022/07/04 03:05:47;;;;;;;1.93;1.70;;;23.00;59.60;;;-142.21;84.41;112049.66;5115325;28;20299;-79
2022/07/04 03:08:15;;;;;;;2.27;1.60;;;22.90;59.60;;;-142.21;84.26;112049.66;5114663;28;20281;-79
2022/07/04 03:10:42;;;;;;;2.40;2.20;;;22.80;59.70;;;-142.21;85.19;112049.66;5114987;28;20715;-79
2022/07/04 03:13:09;;;;;;;5.10;1.70;;;22.80;59.60;;;-142.21;83.88;112049.66;5114665;28;20200;-78
2022/07/04 03:15:36;;;;;;;2.70;1.50;;;22.80;59.40;;;-142.21;84.76;112049.66;5115369;28;20293;-79
2022/07/04 03:18:05;;;;;;;3.17;2.00;;;22.80;59.50;;;-142.21;84.91;112049.66;5114737;28;20331;-79
2022/07/04 03:20:32;;;;;;;2.10;1.53;;;22.80;59.60;;;-142.21;84.42;112049.66;5095027;28;20232;-78
2022/07/04 03:22:59;;;;;;;2.63;1.40;;;22.80;59.60;;;-142.21;83.65;112049.66;5094180;28;20246;-78
2022/07/04 03:25:27;;;;;;;3.37;1.77;;;22.80;59.50;;;-142.21;84.11;112049.66;5095574;28;20244;-78
2022/07/04 03:27:55;;;;;;;2.23;1.93;;;22.70;59.60;;;-142.21;84.23;112049.66;5101825;28;20192;-76
2022/07/04 03:30:22;;;;;;;2.40;2.00;;;22.70;59.60;;;-142.21;83.76;112049.66;5114917;28;20239;-79
2022/07/04 03:32:49;;;;;;;2.90;1.80;;;22.60;59.50;;;-142.21;84.80;112049.66;5115688;28;20398;-76
2022/07/04 03:35:18;;;;;;;1.80;1.60;;;22.60;59.60;;;-142.21;85.53;112049.66;5120998;28;20199;-78
2022/07/04 03:37:45;;;;;;;1.80;1.70;;;22.70;60.00;;;-142.21;85.49;112049.66;5124102;28;20227;-79
2022/07/04 03:40:12;;;;;;;4.10;1.70;;;22.70;60.10;;;-142.21;86.66;112049.66;5096681;28;20243;-79
2022/07/04 03:42:40;;;;;;;2.57;1.70;;;22.60;60.40;;;-142.21;86.58;112049.66;5094184;28;20290;-79
2022/07/04 03:45:09;;;;;;;1.93;1.63;;;22.60;60.50;;;-142.21;87.41;112049.66;5093332;28;20208;-79
2022/07/04 03:47:36;;;;;;;3.43;1.87;;;22.60;60.80;;;-142.21;86.42;112049.66;5094147;28;20205;-78
2022/07/04 03:50:04;;;;;;;2.03;1.77;;;22.60;61.10;;;-142.21;87.19;112049.66;5093204;28;20232;-78
2022/07/04 03:52:33;;;;;;;2.93;2.10;;;22.60;61.00;;;-142.21;86.87;112049.66;5094457;28;20661;-78
2022/07/04 03:55:00;;;;;;;2.10;1.90;;;22.60;60.80;;;-142.21;86.70;112049.66;5093796;28;20665;-79
2022/07/04 03:57:29;;;;;;;3.70;2.40;;;22.60;60.70;;;-142.21;85.55;112049.66;5042138;28;20291;-78
2022/07/04 03:59:56;;;;;;;2.43;1.70;;;22.60;60.40;;;-142.21;87.52;112049.66;5093519;28;20311;-79
2022/07/04 04:02:23;;;;;;;2.60;1.70;;;22.60;60.70;;;-142.21;87.57;112049.66;5092784;28;20292;-78
2022/07/04 04:07:37;;;;;;;1.90;1.80;;;22.60;61.10;;;-142.21;86.73;112049.66;5093687;28;20192;-78
2022/07/04 04:10:05;;;;;;;5.47;2.10;;;22.60;61.00;;;-142.21;88.19;112049.66;5109873;28;20303;-79
2022/07/04 04:12:32;;;;;;;2.10;1.90;;;22.60;61.80;;;-142.21;88.10;112049.66;5113707;28;20196;-77
2022/07/04 04:15:00;;;;;;;2.17;1.77;;;22.60;61.60;;;-142.21;88.11;112049.66;5113728;28;20253;-77
2022/07/04 04:17:27;;;;;;;2.47;2.07;;;22.60;61.40;;;-142.21;88.15;112049.66;5113491;28;20250;-78
2022/07/04 04:19:54;;;;;;;2.57;1.80;;;22.60;61.60;;;-142.21;88.77;112049.66;5113290;28;20315;-76
2022/07/04 04:22:21;;;;;;;3.30;1.70;;;22.50;61.90;;;-142.21;89.01;112049.66;5113111;28;20239;-78
2022/07/04 04:24:50;;;;;;;2.20;1.70;;;22.60;62.00;;;-142.21;89.39;112049.66;5113789;28;20235;-79
2022/07/04 04:27:17;;;;;;;3.70;2.00;;;22.60;62.10;;;-142.21;89.47;112049.66;5113220;28;20226;-79
2022/07/04 04:29:47;;;;;;;3.70;2.23;;;22.50;62.10;;;-142.21;89.20;112049.66;5113663;28;20324;-78
2022/07/04 04:32:14;;;;;;;3.97;1.83;;;22.50;62.20;;;-142.21;88.82;112049.66;5113332;28;20291;-79
2022/07/04 04:34:43;;;;;;;3.77;1.83;;;22.50;62.00;;;-142.21;90.10;112049.66;5113485;28;20288;-78
2022/07/04 04:37:10;;;;;;;2.97;1.90;;;22.50;62.40;;;-142.21;89.96;112049.66;5113605;28;20256;-77
2022/07/04 04:39:39;;;;;;;3.50;1.90;;;22.60;62.50;;;-142.21;89.66;112049.66;5113383;28;20277;-78
2022/07/04 04:42:07;;;;;;;4.60;2.20;;;22.60;62.40;;;-142.21;89.89;112049.66;5113113;28;20207;-79
2022/07/04 04:44:35;;;;;;;4.63;1.90;;;22.60;62.40;;;-142.21;88.37;112049.66;5113042;28;20235;-77
2022/07/04 04:47:02;;;;;;;6.40;2.40;;;22.70;61.90;;;-142.21;87.17;112049.66;5113261;28;20324;-78
2022/07/04 04:49:29;;;;;;;6.53;2.67;;;22.70;61.30;;;-142.21;84.28;112049.66;5113478;28;20210;-79
2022/07/04 04:51:56;;;;;;;10.40;3.33;;;22.70;59.90;;;-142.21;86.83;112049.66;5113349;28;20746;-77
2022/07/04 04:54:24;;;;;;;6.77;2.80;;;22.70;60.60;;;-142.21;84.78;112049.66;5112756;28;20242;-76
2022/07/04 04:56:51;;;;;;;6.20;2.57;;;22.80;60.00;;;-142.21;83.47;112049.66;5113227;28;20278;-78
2022/07/04 04:59:19;;;;;;;5.23;2.07;;;22.90;59.40;;;-142.21;82.34;112049.66;5112363;28;20233;-77
2022/07/04 05:01:47;;;;;;;3.67;1.93;;;22.90;59.20;;;-142.21;83.85;112049.66;5112707;28;20242;-78
2022/07/04 05:04:18;;;;;;;2.07;1.40;;;22.90;59.40;;;-142.21;81.61;112049.66;5112241;28;20225;-78
2022/07/04 05:06:45;;;;;;;3.33;1.60;;;23.00;59.30;;;-142.21;83.28;112049.66;5113060;28;20187;-80
2022/07/04 05:09:12;;;;;;;1.63;1.53;;;23.00;59.20;;;-142.21;82.23;112049.66;5111902;28;20242;-79
2022/07/04 05:11:39;;;;;;;1.57;1.33;;;23.10;59.10;;;-142.21;83.70;112049.66;5112419;28;20203;-79
2022/07/04 05:14:06;;;;;;;3.07;1.60;;;23.10;59.50;;;-142.21;83.61;112049.66;5112430;28;20243;-80
2022/07/04 05:16:35;;;;;;;2.90;1.80;;;23.20;59.50;;;-142.21;81.80;112049.66;5113217;28;20207;-78
2022/07/04 05:19:02;;;;;;;2.13;1.37;;;23.20;59.30;;;-142.21;80.83;112049.66;5092338;28;20223;-78
2022/07/04 05:21:30;;;;;;;1.90;1.40;;;23.30;58.30;;;-142.21;80.60;112049.66;5091841;28;20551;-81
2022/07/04 05:23:58;;;;;;;3.57;2.07;;;23.30;58.10;;;-142.21;82.23;112049.66;5092690;28;20668;-80
2022/07/04 05:26:26;;;;;;;1.30;1.20;;;23.40;58.70;;;-142.21;81.33;112049.66;5092428;28;20235;-79
2022/07/04 05:28:55;;;;;;;2.57;1.57;;;23.40;58.40;;;-142.21;80.32;112049.66;5092965;28;20236;-80
2022/07/04 05:31:24;;;;;;;2.10;1.50;;;23.50;58.10;;;-142.21;76.76;112049.66;5092532;28;20212;-78
2022/07/04 05:33:56;;;;;;;3.87;1.40;;;23.60;57.20;;;-142.21;76.53;112049.66;5092836;28;20204;-81
2022/07/04 05:36:24;;;;;;;1.60;1.50;;;23.60;57.00;;;-142.21;74.47;112049.66;5092398;28;20665;-83
2022/07/04 05:38:51;;;;;;;2.13;1.40;;;23.70;56.30;;;-142.21;74.87;112049.66;5092725;28;20266;-79
2022/07/04 05:41:19;;;;;;;1.63;1.40;;;23.80;56.40;;;-142.21;72.81;112049.66;5091779;28;20291;-82
2022/07/04 05:43:47;;;;;;;2.63;1.93;;;23.80;55.90;;;-142.21;71.03;112049.66;5110586;28;20658;-82
2022/07/04 05:46:14;;;;;;;2.00;1.70;;;23.80;55.50;;;-142.21;72.38;112049.66;5112167;28;20242;-77
2022/07/04 05:48:41;;;;;;;2.27;1.50;;;23.90;55.40;;;-142.21;71.62;112049.66;5094540;28;20294;-79
2022/07/04 05:51:10;;;;;;;2.67;1.70;;;23.90;55.30;;;-142.21;70.96;112049.66;5111987;28;20200;-80
2022/07/04 05:53:37;;;;;;;1.80;1.70;;;24.00;55.10;;;-142.21;71.33;112049.66;5112886;28;20636;-82
2022/07/04 05:56:08;;;;;;;3.47;1.90;;;24.00;55.10;;;-142.21;71.69;112049.66;5095532;28;20226;-80
2022/07/04 05:58:35;;;;;;;7.27;1.80;;;24.00;55.30;;;-142.21;70.37;112049.66;5095524;28;20184;-81
2022/07/04 06:01:03;;;;;;;2.07;1.80;;;24.00;54.90;;;-142.21;71.86;112049.66;5112675;28;20204;-81
2022/07/04 06:03:30;;;;;;;1.93;1.70;;;24.10;55.20;;;-142.21;70.05;112049.66;5112290;28;20634;-85
2022/07/04 06:05:57;;;;;;;2.30;1.70;;;24.10;54.70;;;-142.21;69.32;112049.66;5112394;28;20208;-83
2022/07/04 06:08:26;;;;;;;1.90;1.67;;;24.10;54.50;;;-142.21;69.42;112049.66;5112445;28;20282;-76
2022/07/04 06:10:53;;;;;;;2.30;1.47;;;24.20;54.60;;;-142.21;68.97;112049.66;5112356;28;20246;-80
2022/07/04 06:13:20;;;;;;;2.60;1.80;;;24.20;54.40;;;-142.21;68.32;112049.66;5111882;28;20252;-79
2022/07/04 06:15:48;;;;;;;1.50;1.40;;;24.30;54.20;;;-142.21;68.55;112049.66;5112022;28;20208;-82
2022/07/04 06:18:16;;;;;;;3.93;2.07;;;24.30;54.20;;;-142.21;69.34;112049.66;5111910;28;20227;-84
2022/07/04 06:20:43;;;;;;;1.77;1.37;;;24.30;54.30;;;-142.21;68.91;112049.66;5112118;28;20238;-82
2022/07/04 06:23:10;;;;;;;3.43;1.47;;;24.40;54.30;;;-142.21;69.11;112049.66;5112101;28;20242;-83
2022/07/04 06:25:39;;;;;;;2.23;1.47;;;24.40;54.40;;;-142.21;69.75;112049.66;5115967;28;20256;-81
2022/07/04 06:28:07;;;;;;;1.80;1.70;;;24.40;54.40;;;-142.21;68.39;112049.66;5116282;28;20207;-86
2022/07/04 06:30:34;;;;;;;3.87;1.87;;;24.50;54.10;;;-142.21;68.83;112049.66;5116376;28;20204;-86
2022/07/04 06:33:02;;;;;;;1.97;1.60;;;24.50;54.20;;;-142.21;68.82;112049.66;5116244;28;20205;-80
2022/07/04 06:35:45;;;;;;;1.80;1.40;;;24.60;54.20;;;-142.21;68.12;112049.66;5115771;28;20204;-81
2022/07/04 06:38:16;;;;;;;2.77;1.40;;;24.70;54.80;;;-142.21;66.63;112049.66;5116240;28;20190;-78
2022/07/04 06:40:46;;;;;;;3.43;1.50;;;24.70;53.90;;;-142.21;65.75;112049.66;5116112;28;20204;-81
2022/07/04 06:43:14;;;;;;;1.60;1.50;;;24.80;53.70;;;-142.21;67.71;112049.66;5115603;28;20249;-81
2022/07/04 06:45:41;;;;;;;1.93;1.50;;;24.80;54.00;;;-142.21;67.32;112049.66;5117276;28;20207;-83
2022/07/04 06:48:09;;;;;;;2.40;1.93;;;24.90;54.00;;;-142.21;67.15;112049.66;5117025;28;20212;-83
2022/07/04 06:50:37;;;;;;;3.63;1.70;;;25.00;53.70;;;-142.21;66.17;112049.66;5116859;28;20240;-82
2022/07/04 06:53:07;;;;;;;1.70;1.50;;;25.00;53.60;;;-142.21;65.95;112049.66;5116179;28;20207;-86
2022/07/04 06:55:38;;;;;;;2.53;1.50;;;25.10;53.50;;;-142.21;66.25;112049.66;5116570;28;20226;-81
2022/07/04 06:58:08;;;;;;;4.40;1.90;;;25.20;53.50;;;-142.21;64.36;112049.66;5115939;28;20203;-85
2022/07/04 07:00:36;;;;;;;2.87;1.70;;;25.20;53.10;;;-142.21;64.63;112049.66;5116116;28;20223;-84
2022/07/04 07:03:05;;;;;;;2.57;1.77;;;25.20;53.10;;;-142.21;64.76;112049.66;5117343;28;20724;-81
2022/07/04 07:05:32;;;;;;;2.00;1.43;;;25.20;53.00;;;-142.21;65.27;112049.66;5137882;28;20214;-84
2022/07/04 07:08:00;;;;;;;2.33;1.87;;;25.30;53.10;;;-142.21;64.39;112049.66;5138539;28;20256;-81
2022/07/04 07:10:27;;;;;;;1.73;1.63;;;25.40;53.00;;;-142.21;64.15;112049.66;5120190;28;20239;-83
2022/07/04 07:12:54;;;;;;;1.77;1.67;;;25.40;52.80;;;-142.21;64.58;112049.66;5115906;28;20548;-84
2022/07/04 07:15:23;;;;;;;3.00;1.50;;;25.50;52.80;;;-142.21;64.32;112049.66;5114997;28;20211;-86
2022/07/04 07:17:50;;;;;;;3.57;1.97;;;25.60;52.70;;;-142.21;65.62;112049.66;5115550;28;20620;-81
2022/07/04 07:20:18;;;;;;;2.13;1.63;;;25.60;52.90;;;-142.21;63.93;112049.66;5115351;28;20224;-83
2022/07/04 07:22:48;;;;;;;1.93;1.70;;;25.70;52.60;;;-142.21;63.02;112049.66;5114887;28;20235;-80
2022/07/04 07:25:15;;;;;;;2.63;1.57;;;25.80;52.20;;;-142.21;63.69;112049.66;5114897;28;20549;-82
2022/07/04 07:27:43;;;;;;;2.67;1.70;;;25.80;52.30;;;-142.21;63.48;112049.66;5115299;28;20204;-81
2022/07/04 07:30:12;;;;;;;2.97;1.80;;;25.90;52.30;;;-142.21;62.48;112049.66;5115412;28;20273;-80
2022/07/04 07:32:40;;;;;;;3.40;1.93;;;26.00;52.30;;;-142.21;60.83;112049.66;5115118;28;20317;-83
2022/07/04 07:35:08;;;;;;;2.53;1.60;;;26.00;51.60;;;-142.21;61.71;112049.66;5115007;28;20207;-80
2022/07/04 07:37:36;;;;;;;3.77;1.83;;;26.10;51.90;;;-142.21;62.87;112049.66;5114340;28;20291;-82
2022/07/04 07:40:03;;;;;;;3.40;2.20;;;26.20;52.10;;;-142.21;63.16;112049.66;5114741;28;20227;-81
2022/07/04 07:42:31;;;;;;;4.27;1.83;;;26.20;52.20;;;-142.21;63.22;112049.66;5114155;28;20199;-85
2022/07/04 07:44:58;;;;;;;3.00;1.97;;;26.30;52.10;;;-142.21;61.45;112049.66;5115093;28;20268;-85
2022/07/04 07:47:25;;;;;;;1.90;1.70;;;26.40;51.70;;;-142.21;61.41;112049.66;5114605;28;20279;-83
2022/07/04 07:49:55;;;;;;;2.07;1.80;;;26.50;51.60;;;-142.21;60.92;112049.66;5115043;28;20211;-81
2022/07/04 07:52:22;;;;;;;2.40;1.77;;;26.50;51.40;;;-142.21;60.34;112049.66;5114131;28;20211;-81
2022/07/04 07:54:49;;;;;;;2.93;1.93;;;26.60;51.20;;;-142.21;61.38;112049.66;5114429;28;20648;-81
2022/07/04 07:57:17;;;;;;;2.90;1.80;;;26.60;51.40;;;-142.21;60.10;112049.66;5114107;28;20204;-84
2022/07/04 07:59:44;;;;;;;3.87;1.90;;;26.70;51.10;;;-142.21;58.87;112049.66;5114359;28;20243;-80
2022/07/04 08:02:15;;;;;;;2.83;2.00;;;26.80;50.80;;;-142.21;59.66;112049.66;5114376;28;20203;-83
2022/07/04 08:04:41;;;;;;;2.93;2.10;;;26.80;51.00;;;-142.21;54.93;112049.66;5109417;28;20328;-83
2022/07/04 08:07:12;;;;;;;2.07;1.60;;;26.80;49.80;;;-142.21;56.42;112049.66;5114093;28;20214;-79
2022/07/04 08:09:40;;;;;;;1.67;1.40;;;26.90;50.30;;;-142.21;58.32;112049.66;5113795;28;20690;-83
2022/07/04 08:12:08;;;;;;;3.37;2.10;;;26.90;50.50;;;-142.21;54.29;112049.66;5113685;28;20196;-83
2022/07/04 08:14:36;;;;;;;2.33;1.67;;;27.00;49.50;;;-142.21;54.68;112049.66;5095400;28;20285;-82
2022/07/04 08:17:06;;;;;;;1.63;1.50;;;27.00;49.50;;;-142.21;53.43;112049.66;5114334;28;20232;-81
2022/07/04 08:19:33;;;;;;;2.03;1.43;;;27.10;49.10;;;-142.21;52.19;112049.66;5113490;28;20227;-82
2022/07/04 08:22:00;;;;;;;2.63;1.50;;;27.10;48.50;;;-142.21;54.15;112049.66;5113920;28;20196;-81
2022/07/04 08:24:29;;;;;;;4.70;2.20;;;27.10;49.30;;;-142.21;55.94;112049.66;5113466;28;20208;-81
2022/07/04 08:26:56;;;;;;;2.77;1.70;;;27.20;49.60;;;-142.21;54.80;112049.66;5113636;28;20203;-81
2022/07/04 08:29:26;;;;;;;3.30;1.93;;;27.30;49.40;;;-142.21;55.49;112049.66;5113101;28;20204;-81
2022/07/04 08:31:53;;;;;;;2.57;2.37;;;27.40;49.50;;;-142.21;55.28;112049.66;5113776;28;20211;-81
2022/07/04 08:34:21;;;;;;;6.53;1.93;;;27.50;49.40;;;-142.21;51.71;112049.66;5113337;28;20233;-83
2022/07/04 08:36:48;;;;;;;2.77;1.60;;;27.50;48.30;;;-142.21;56.24;112049.66;5113377;28;20261;-82
2022/07/04 08:39:16;;;;;;;2.77;1.60;;;27.50;49.60;;;-142.21;57.21;112049.66;5113514;28;20284;-82
2022/07/04 08:41:45;;;;;;;5.30;1.80;;;27.60;49.70;;;-142.21;54.36;112049.66;5113527;28;20224;-81
2022/07/04 08:44:12;;;;;;;2.97;1.90;;;27.80;49.50;;;-142.21;49.59;112049.66;5113309;28;20246;-78
2022/07/04 08:46:42;;;;;;;2.60;2.10;;;27.80;47.60;;;-142.21;49.72;112049.66;5112178;28;20198;-83
2022/07/04 08:49:18;;;;;;;2.50;1.73;;;27.80;47.70;;;-142.21;48.83;112049.66;5113569;28;20622;-80
2022/07/04 08:51:54;;;;;;;1.90;1.50;;;27.80;47.20;;;-142.21;49.45;112049.66;5113646;28;20241;-81
2022/07/04 08:59:58;;;;;;;2.37;1.60;;;27.60;47.30;;;-142.21;49.94;112049.66;5112982;28;20215;-78
2022/07/04 09:02:29;;;;;;;3.77;1.80;;;27.70;47.80;;;-142.21;51.52;112049.66;5112969;28;20204;-81
2022/07/04 09:04:57;;;;;;;1.60;1.50;;;27.80;48.50;;;-142.21;50.40;112049.66;5113395;28;20228;-78
2022/07/04 09:07:24;;;;;;;1.93;1.60;;;28.00;48.10;;;-142.21;49.90;112049.66;5112553;28;20679;-79
2022/07/04 09:09:53;;;;;;;1.90;1.80;;;28.10;47.80;;;-142.21;50.58;112049.66;5112437;28;20356;-79
2022/07/04 09:12:21;;;;;;;2.00;1.60;;;28.20;48.10;;;-142.21;50.02;112049.66;5112409;28;20266;-79
2022/07/04 09:14:51;;;;;;;2.43;1.50;;;28.30;47.60;;;-142.21;49.08;112049.66;5113073;28;20214;-82
2022/07/04 09:17:20;;;;;;;2.00;1.80;;;28.50;47.60;;;-142.21;47.88;112049.66;5112260;28;20193;-80
2022/07/04 09:20:17;;;;;;;1.93;1.53;;;28.60;46.60;;;-142.21;50.10;112049.66;5112808;28;20708;-79
2022/07/04 09:22:46;;;;;;;2.00;1.37;;;28.60;47.50;;;-142.21;45.66;112049.66;5112503;28;20278;-81
2022/07/04 09:25:15;;;;;;;3.57;1.40;;;28.60;46.00;;;-142.21;47.55;112049.66;5112639;28;20225;-83
2022/07/04 09:27:47;;;;;;;3.23;1.63;;;28.70;47.30;;;-142.21;46.34;112049.66;5112350;28;20234;-80
2022/07/04 09:30:16;;;;;;;2.07;1.40;;;28.80;46.20;;;-142.21;49.15;112049.66;5112686;28;20201;-82
2022/07/04 09:32:45;;;;;;;1.80;1.40;;;28.90;47.10;;;-142.21;47.10;112049.66;5112383;28;20233;-79
2022/07/04 09:35:17;;;;;;;2.37;1.40;;;29.00;46.30;;;-142.21;45.36;112049.66;5112991;28;20591;-81
2022/07/04 09:37:47;;;;;;;1.40;1.30;;;29.10;45.60;;;-142.21;46.55;112049.66;5113014;28;20219;-79
2022/07/04 09:40:25;;;;;;;1.90;1.70;;;29.20;45.90;;;-142.21;43.08;112049.66;5112380;28;20225;-79
2022/07/04 09:42:55;;;;;;;2.20;1.53;;;29.20;44.20;;;-142.21;44.97;112049.66;5095319;28;20741;-83
2022/07/04 09:45:24;;;;;;;4.07;1.50;;;29.00;45.00;;;-142.21;45.61;112049.66;5111972;28;20209;-80
2022/07/04 09:47:55;;;;;;;2.03;1.83;;;29.00;45.50;;;-142.21;45.25;112049.66;5112806;28;20214;-79
2022/07/04 09:50:24;;;;;;;3.83;1.83;;;29.10;45.50;;;-142.21;47.71;112049.66;5112390;28;20189;-79
2022/07/04 09:52:54;;;;;;;2.63;1.50;;;29.20;46.20;;;-142.21;42.37;112049.66;5112577;28;20267;-82
2022/07/04 09:55:25;;;;;;;1.70;1.50;;;29.10;43.90;;;-142.21;45.49;112049.66;5112499;28;20202;-80
2022/07/04 09:57:58;;;;;;;2.03;1.60;;;29.20;45.60;;;-142.21;44.79;112049.66;5112705;28;20243;-79
2022/07/04 10:00:28;;;;;;;1.57;1.43;;;29.30;45.30;;;-142.21;43.90;112049.66;5115145;28;20221;-83
2022/07/04 10:03:16;;;;;;;1.60;1.30;;;29.50;45.00;;;-142.21;44.93;112049.66;5116377;28;20191;-78
2022/07/04 10:05:45;;;;;;;2.90;1.53;;;29.50;45.20;;;-142.21;43.10;112049.66;5115982;28;20288;-82
2022/07/04 10:08:13;;;;;;;3.17;1.37;;;29.60;44.30;;;-142.21;42.97;112049.66;5115988;28;20201;-79
2022/07/04 10:10:42;;;;;;;1.60;1.50;;;29.60;43.90;;;-142.21;43.31;112049.66;5116236;28;20258;-77
2022/07/04 10:13:13;;;;;;;2.43;1.53;;;29.60;44.20;;;-142.21;43.16;112049.66;5116177;28;20532;-80
2022/07/04 10:15:42;;;;;;;2.03;1.50;;;29.70;44.10;;;-142.21;43.78;112049.66;5115943;28;20650;-80